Flight Briefing for CPX214

Departure Arrival
Benito Juárez International Airport (MMMX)
Click to view FAA NOTAMS
Don Miguel Hidalgo y Costilla International Airport (MMGL)
Click to view FAA NOTAMS
Departure Time Arrival Time
0600 UTC 0700 UTC
Aircraft Distance
B767-300BDSF 268nm
Departure METAR Arrival METAR
MMMX 180546Z 18004KT 10SM SKC 19/04 A3031 NOSIG RMK SLP062 52014 918 MMGL 180550Z 34005KT 10SM SKC 17/06 A3016 RMK SLP098 52011 918
Suggested Route
TLC6A TLC UJ18 UPN UJ3 ONGEL ONGEL1A


View recent IFR Routes data
Notes



Charts and Procedures

Charts for MMMX
No chart available
Charts for MMGL
No chart available

Ventusky Weather